Terminal Aerodrome Forecast
Issued by NWS

Home | Current Version | Previous Version | Text Only | Print | Product List | Glossary On
Versions: 1 2 3 4 5 6 7 8 9 10 11 12 13 14 15 16 17 18 19 20 21 22 23 24
000
FTUS46 KLOX 202300
TAFLGB
TAF
KLGB 202331Z 2100/2124 29007KT P6SM SCT250
     FM210300 VRB03KT P6SM SKC
     FM210900 VRB03KT P6SM BKN015
     FM211600 VRB03KT P6SM SCT020
     FM211900 18007KT P6SM SKC=

USA.gov is the U.S. government's official web portal to all federal, state and local government web resources and services.